Pearl Harbor, Hawaii
Current Conditions -  °F | °C
As of 12:53 PM on Monday 22 Dec 2014 (Local Time) from PHNL Reporting Station
Broken Clouds Broken Clouds  
Wind Chill: 73°   Ceiling: 3200
Heat Index: 73°   Visibility: 10mi
Dew Point: 66°   Wind: 12mph
Humidity: 79%   Direction: 330°NNW
Pressure: 29.99"   Gusts: NA
Location:  21.31°N, 157.86°W
Report Text: PHNL 222253Z 33010KT 10SM FEW024 BKN032 BKN042 23/19 A2999 RMK AO2 RAB25E33 SLP156 VCSH NE-E SHRA DSNT SW P0000 T02280189
Loading
Personal Weather Stations






























Interactive Weather Map New forecast layout! Learn more

10-Day Weather Forecast

Advertisements
Track Severe Weather on mobile